Challenge Peak — 9V9589 — position and weather

sailwx.info

Track history (hours):
 
Tides and Currents Weather Stations Pressure Air Temp Water Temp Dewpoint Dewpoint Depression Visibility Wind Speed Wind Dir Waves Ship Positions

Challenge Peak

Last reported at 2016-Apr-17 12:07 UTC. Time now 2016-May-02 08:16 UTC.
Position S 38°35' E 141°39'.
Warning: this ship's position is 14 days out of date.

Length 182 m; draft 7.8 m.

Type: Tanker. MMSI: 566433000.

Date/timePositionNaut miles runAvg speedWind from/ knotsBaromVisibWave heightAir tempDewpointWater temp
2016-Apr-17 12:07S 38°35' E 141°39'813.9
2016-Apr-17 11:33S 38°37' E 141°48'1413.4
2016-Apr-17 10:31S 38°40' E 142°06'1313.6
2016-Apr-17 09:33S 38°44' E 142°22'1413.5
2016-Apr-17 08:33S 38°48' E 142°39'14311.9
2016-Apr-16 20:33S 39°10' E 145°40'1212.5
2016-Apr-16 19:33S 39°11' E 145°56'1312.7
2016-Apr-16 18:33S 39°12' E 146°12'1312.7
2016-Apr-16 17:33S 39°10' E 146°29'1313.1
2016-Apr-16 16:33S 39°06' E 146°45'1312.9
2016-Apr-16 15:33S 39°01' E 147°00'1312.7
2016-Apr-16 14:33S 38°57' E 147°16'1212.2
2016-Apr-16 13:33S 38°54' E 147°31'113 8.6
2016-Apr-16 00:24S 37°54' E 149°34'911.1
2016-Apr-15 23:33S 37°48' E 149°43'1312.9
2016-Apr-15 22:33S 37°40' E 149°56'1312.5
2016-Apr-15 21:33S 37°31' E 150°07'1514.5
2016-Apr-15 20:32S 37°17' E 150°13'23211.6
2016-Apr-15 00:34S 33°37' E 151°43'1111.0
2016-Apr-14 23:34S 33°26' E 151°47'1111.0
2016-Apr-14 22:33S 33°16' E 151°49'1313.0
2016-Apr-14 21:33S 33°04' E 151°55'10 9.6
2016-Apr-14 20:34S 32°55' E 151°51'  
2016-Apr-12 04:33S 32°55' E 151°46'5 5.3
2016-Apr-12 03:33S 32°55' E 151°53'5 5.2
2016-Apr-12 02:34S 32°55' E 151°59'1413.7
2016-Apr-12 01:33S 32°50' E 152°14'1413.9
2016-Apr-12 00:33S 32°40' E 152°26'1313.4
2016-Apr-11 23:33S 32°31' E 152°37'29013.2
2016-Apr-11 01:31S 27°48' E 153°55'4515.0
2016-Apr-10 22:33S 27°04' E 153°56'1615.5
2016-Apr-10 21:33S 26°48' E 153°56'  
Track history (hours):
 
Tides and Currents Weather Stations Pressure Air Temp Water Temp Dewpoint Dewpoint Depression Visibility Wind Speed Wind Dir Waves Ship Positions

Challenge Peak

Last reported at 2016-Apr-17 12:07 UTC. Time now 2016-May-02 08:16 UTC.
Position S 38°35' E 141°39'.
Warning: this ship's position is 14 days out of date.

Length 182 m; draft 7.8 m.

Type: Tanker. MMSI: 566433000.

Date/timePositionNaut miles runAvg speedWind from/ knotsBaromVisibWave heightAir tempDewpointWater temp
2016-Apr-17 12:07S 38°35' E 141°39'813.9
2016-Apr-17 11:33S 38°37' E 141°48'1413.4
2016-Apr-17 10:31S 38°40' E 142°06'1313.6
2016-Apr-17 09:33S 38°44' E 142°22'1413.5
2016-Apr-17 08:33S 38°48' E 142°39'14311.9
2016-Apr-16 20:33S 39°10' E 145°40'1212.5
2016-Apr-16 19:33S 39°11' E 145°56'1312.7
2016-Apr-16 18:33S 39°12' E 146°12'1312.7
2016-Apr-16 17:33S 39°10' E 146°29'1313.1
2016-Apr-16 16:33S 39°06' E 146°45'1312.9
2016-Apr-16 15:33S 39°01' E 147°00'1312.7
2016-Apr-16 14:33S 38°57' E 147°16'1212.2
2016-Apr-16 13:33S 38°54' E 147°31'113 8.6
2016-Apr-16 00:24S 37°54' E 149°34'911.1
2016-Apr-15 23:33S 37°48' E 149°43'1312.9
2016-Apr-15 22:33S 37°40' E 149°56'1312.5
2016-Apr-15 21:33S 37°31' E 150°07'1514.5
2016-Apr-15 20:32S 37°17' E 150°13'23211.6
2016-Apr-15 00:34S 33°37' E 151°43'1111.0
2016-Apr-14 23:34S 33°26' E 151°47'1111.0
2016-Apr-14 22:33S 33°16' E 151°49'1313.0
2016-Apr-14 21:33S 33°04' E 151°55'10 9.6
2016-Apr-14 20:34S 32°55' E 151°51'  
2016-Apr-12 04:33S 32°55' E 151°46'5 5.3
2016-Apr-12 03:33S 32°55' E 151°53'5 5.2
2016-Apr-12 02:34S 32°55' E 151°59'1413.7
2016-Apr-12 01:33S 32°50' E 152°14'1413.9
2016-Apr-12 00:33S 32°40' E 152°26'1313.4
2016-Apr-11 23:33S 32°31' E 152°37'29013.2
2016-Apr-11 01:31S 27°48' E 153°55'4515.0
2016-Apr-10 22:33S 27°04' E 153°56'1615.5
2016-Apr-10 21:33S 26°48' E 153°56'  

Dump ship's entire track history